Crown King, AZ (86343)

8:13 AM MST on September 01, 2014 (GMT -0700)
RAWS CROWN KING AZ US | Change Station
CLOSE
Current Station
Personal Weather Station
Location: Crown King, AZ
Elevation: 6078 ft
Nearby Weather Stations

Elev 6078 ft 34.20 °N, 112.35 °W | Updated 46 minutes ago

Clear
Clear
64 °F
Feels Like 64 °F
N
2
Wind Variable Wind from WSW
Gusts 6.0 mph

Today
High -- | Low -- °F
--% Chance of Precip.
Yesterday
High -- | Low -- °F
Precip. -- in
6:02 AM 6:55 PM
Waxing Crescent, 41% visible
Pressure 29.88 in
Visibility 10.0 miles
Clouds Clear
Dew Point 44 °F
Humidity 49%
Rainfall 0.00 in
Snow Depth Not available.
UV 0 out of 12
Pollen 7.20 out of 12
Air Quality Not available.
Flu Activity Not available.
METAR KPRC 011353Z 00000KT 10SM CLR 17/08 A3011 RMK AO2 SLP118 T01670083

More Conditions Fewer Conditions

Pressure 29.88 in
Visibility 10.0 miles
Clouds Clear
Dew Point 44 °F
Humidity 49%
Rainfall 0.00 in
Snow Depth Not available.
UV 0 out of 12
Pollen 7.20 out of 12
Air Quality Not available.
Flu Activity Not available.
METAR KPRC 011353Z 00000KT 10SM CLR 17/08 A3011 RMK AO2 SLP118 T01670083

More Conditions Fewer Conditions

10-Day Weather Forecast

Almanac

Astronomy

Sep. 01, 2014 Rise Set
Actual Time 6:02 AM MST 6:55 PM MST
Civil Twilight 5:37 AM MST 7:20 PM MST
Nautical Twilight 5:06 AM MST 7:50 PM MST
Astronomical Twilight 4:35 AM MST 8:21 PM MST
Moon 12:34 PM MST 11:17 PM MST
Length of Visible Light 13h 43m
Length of Day
12h 52m
Tomorrow will be 2m 2s shorter.
Waxing Crescent, 41% of the Moon is Illuminated
Today
Waxing Crescent
Sep 2
First Quarter
Sep 8
Full
Sep 15
Last Quarter
Sep 24
New

Today's Extremes

State Highs State Lows

Community

WunderPhotos

Upload Photos

1,749,256 photos uploaded!

Nearby

Snow Depth

Station Depth Elevation
White Horse Lake 1 in 7180 ft
Promontory 0 in 7930 ft
Workman Creek 1 in 6900 ft
Snowslide Canyon 0 in 9730 ft
Wildcat 0 in 7850 ft

Earthquake Activity

City Distance Mag. Time & Date
No recent earthquake activity has been reported nearby.
Minimum magnitude displayed is 2.5.

Coastal Water Temperatures

Place Temperature
No Stations Reporting

Nearby Weather Stations